sensor_id;sensor_type;location;lat;lon;timestamp;pressure;altitude;pressure_sealevel;temperature;humidity
5879;BME280;2965;42.640;23.370;2023-05-24T04:00:47;94256.16;;;11.53;nan
5879;BME280;2965;42.640;23.370;2023-05-24T04:03:12;94241.66;;;11.57;nan
5879;BME280;2965;42.640;23.370;2023-05-24T04:05:38;94246.75;;;11.65;nan
5879;BME280;2965;42.640;23.370;2023-05-24T04:08:04;94248.56;;;11.71;nan
5879;BME280;2965;42.640;23.370;2023-05-24T04:10:29;94253.00;;;11.77;nan
5879;BME280;2965;42.640;23.370;2023-05-24T04:12:54;94257.31;;;11.85;nan
5879;BME280;2965;42.640;23.370;2023-05-24T04:15:22;94256.75;;;11.96;nan
5879;BME280;2965;42.640;23.370;2023-05-24T04:17:48;94260.59;;;12.07;nan
5879;BME280;2965;42.640;23.370;2023-05-24T04:20:19;94260.41;;;12.15;nan
5879;BME280;2965;42.640;23.370;2023-05-24T04:22:44;94270.91;;;12.15;nan
5879;BME280;2965;42.640;23.370;2023-05-24T04:25:10;94263.63;;;12.17;nan
5879;BME280;2965;42.640;23.370;2023-05-24T04:27:35;94261.66;;;12.32;nan
5879;BME280;2965;42.640;23.370;2023-05-24T04:30:01;94263.28;;;12.47;nan
5879;BME280;2965;42.640;23.370;2023-05-24T04:32:26;94260.06;;;12.58;nan
5879;BME280;2965;42.640;23.370;2023-05-24T04:34:54;94267.75;;;12.66;nan
5879;BME280;2965;42.640;23.370;2023-05-24T04:37:20;94269.75;;;12.77;nan
5879;BME280;2965;42.640;23.370;2023-05-24T04:39:46;94274.19;;;12.90;nan
5879;BME280;2965;42.640;23.370;2023-05-24T04:42:12;94273.78;;;12.93;nan
5879;BME280;2965;42.640;23.370;2023-05-24T04:44:39;94278.63;;;13.03;nan
5879;BME280;2965;42.640;23.370;2023-05-24T04:47:05;94284.66;;;13.10;nan
5879;BME280;2965;42.640;23.370;2023-05-24T04:49:30;94295.56;;;13.20;nan
5879;BME280;2965;42.640;23.370;2023-05-24T04:51:56;94294.38;;;13.29;nan
5879;BME280;2965;42.640;23.370;2023-05-24T04:54:22;94304.84;;;13.43;nan
5879;BME280;2965;42.640;23.370;2023-05-24T04:56:47;94299.97;;;13.53;nan
5879;BME280;2965;42.640;23.370;2023-05-24T04:59:13;94307.25;;;13.64;nan
5879;BME280;2965;42.640;23.370;2023-05-24T05:01:38;94300.13;;;13.71;nan
5879;BME280;2965;42.640;23.370;2023-05-24T05:04:04;94304.75;;;13.82;nan
5879;BME280;2965;42.640;23.370;2023-05-24T05:06:29;94301.50;;;13.80;nan
5879;BME280;2965;42.640;23.370;2023-05-24T05:08:55;94307.97;;;13.84;nan
5879;BME280;2965;42.640;23.370;2023-05-24T05:11:21;94311.16;;;14.00;nan
5879;BME280;2965;42.640;23.370;2023-05-24T05:13:46;94307.25;;;14.09;nan
5879;BME280;2965;42.640;23.370;2023-05-24T05:16:12;94307.44;;;14.14;nan
5879;BME280;2965;42.640;23.370;2023-05-24T05:18:37;94304.56;;;14.22;nan
5879;BME280;2965;42.640;23.370;2023-05-24T05:21:03;94311.31;;;14.05;nan
5879;BME280;2965;42.640;23.370;2023-05-24T05:23:28;94305.38;;;14.16;nan
5879;BME280;2965;42.640;23.370;2023-05-24T05:25:54;94314.66;;;14.25;nan
5879;BME280;2965;42.640;23.370;2023-05-24T05:28:20;94322.75;;;14.30;nan
5879;BME280;2965;42.640;23.370;2023-05-24T05:30:45;94313.81;;;14.31;nan
5879;BME280;2965;42.640;23.370;2023-05-24T05:33:11;94320.28;;;14.35;nan
5879;BME280;2965;42.640;23.370;2023-05-24T05:35:36;94325.88;;;14.46;nan
5879;BME280;2965;42.640;23.370;2023-05-24T05:38:01;94329.09;;;14.61;nan
5879;BME280;2965;42.640;23.370;2023-05-24T05:40:27;94326.69;;;14.46;nan
5879;BME280;2965;42.640;23.370;2023-05-24T05:42:52;94328.72;;;14.51;nan
5879;BME280;2965;42.640;23.370;2023-05-24T05:45:18;94329.25;;;14.66;nan
5879;BME280;2965;42.640;23.370;2023-05-24T05:47:43;94332.63;;;14.73;nan
5879;BME280;2965;42.640;23.370;2023-05-24T05:50:09;94332.44;;;14.75;nan
5879;BME280;2965;42.640;23.370;2023-05-24T05:52:35;94336.53;;;14.64;nan
5879;BME280;2965;42.640;23.370;2023-05-24T05:55:00;94336.38;;;14.59;nan
5879;BME280;2965;42.640;23.370;2023-05-24T05:57:25;94331.78;;;14.79;nan
5879;BME280;2965;42.640;23.370;2023-05-24T05:59:51;94340.16;;;14.95;nan
5879;BME280;2965;42.640;23.370;2023-05-24T06:02:17;94334.06;;;15.01;nan
5879;BME280;2965;42.640;23.370;2023-05-24T06:04:47;94343.88;;;15.12;nan
5879;BME280;2965;42.640;23.370;2023-05-24T06:07:12;94337.28;;;15.03;nan
5879;BME280;2965;42.640;23.370;2023-05-24T06:09:38;94343.47;;;15.15;nan
5879;BME280;2965;42.640;23.370;2023-05-24T06:12:03;94349.19;;;15.30;nan
5879;BME280;2965;42.640;23.370;2023-05-24T06:14:29;94347.47;;;15.43;nan
5879;BME280;2965;42.640;23.370;2023-05-24T06:16:55;94349.03;;;15.50;nan
5879;BME280;2965;42.640;23.370;2023-05-24T06:19:21;94357.59;;;15.46;nan
5879;BME280;2965;42.640;23.370;2023-05-24T06:21:47;94352.06;;;15.54;nan
5879;BME280;2965;42.640;23.370;2023-05-24T06:24:16;94360.47;;;15.62;nan
5879;BME280;2965;42.640;23.370;2023-05-24T06:26:49;94319.94;;;16.49;nan
5879;BME280;2965;42.640;23.370;2023-05-24T06:29:16;94283.22;;;17.59;nan
5879;BME280;2965;42.640;23.370;2023-05-24T06:31:44;94287.34;;;18.59;nan
5879;BME280;2965;42.640;23.370;2023-05-24T06:34:11;94324.19;;;19.23;nan
5879;BME280;2965;42.640;23.370;2023-05-24T06:36:37;94396.91;;;18.99;nan
5879;BME280;2965;42.640;23.370;2023-05-24T06:39:11;94399.19;;;19.07;nan
5879;BME280;2965;42.640;23.370;2023-05-24T06:41:37;94387.44;;;19.65;nan
5879;BME280;2965;42.640;23.370;2023-05-24T06:44:03;94402.00;;;19.79;nan
5879;BME280;2965;42.640;23.370;2023-05-24T06:46:28;94396.38;;;19.93;nan
5879;BME280;2965;42.640;23.370;2023-05-24T06:48:53;94402.00;;;19.79;nan
5879;BME280;2965;42.640;23.370;2023-05-24T06:51:19;94408.25;;;19.73;nan
5879;BME280;2965;42.640;23.370;2023-05-24T06:53:45;94406.00;;;19.48;nan
5879;BME280;2965;42.640;23.370;2023-05-24T06:56:10;94400.63;;;18.98;nan
5879;BME280;2965;42.640;23.370;2023-05-24T06:58:35;94399.59;;;18.70;nan
5879;BME280;2965;42.640;23.370;2023-05-24T07:01:02;94401.19;;;18.71;nan
5879;BME280;2965;42.640;23.370;2023-05-24T07:03:31;94405.75;;;18.35;nan
5879;BME280;2965;42.640;23.370;2023-05-24T07:05:57;94398.97;;;18.39;nan
5879;BME280;2965;42.640;23.370;2023-05-24T07:08:26;94399.69;;;18.23;nan
5879;BME280;2965;42.640;23.370;2023-05-24T07:10:52;94396.72;;;18.08;nan
5879;BME280;2965;42.640;23.370;2023-05-24T07:13:18;94396.72;;;18.08;nan
5879;BME280;2965;42.640;23.370;2023-05-24T07:15:45;94394.78;;;17.92;nan
5879;BME280;2965;42.640;23.370;2023-05-24T07:18:11;94398.78;;;18.06;nan
5879;BME280;2965;42.640;23.370;2023-05-24T07:20:36;94395.31;;;18.17;nan
5879;BME280;2965;42.640;23.370;2023-05-24T07:23:02;94397.00;;;18.35;nan
5879;BME280;2965;42.640;23.370;2023-05-24T07:25:28;94408.59;;;18.46;nan
5879;BME280;2965;42.640;23.370;2023-05-24T07:27:58;94402.16;;;18.41;nan
5879;BME280;2965;42.640;23.370;2023-05-24T07:30:30;94402.13;;;18.65;nan
5879;BME280;2965;42.640;23.370;2023-05-24T07:33:01;94414.78;;;18.63;nan
5879;BME280;2965;42.640;23.370;2023-05-24T07:35:27;94415.91;;;18.67;nan
5879;BME280;2965;42.640;23.370;2023-05-24T07:37:53;94405.56;;;18.77;nan
5879;BME280;2965;42.640;23.370;2023-05-24T07:40:19;94415.47;;;18.70;nan
5879;BME280;2965;42.640;23.370;2023-05-24T07:42:44;94416.88;;;18.61;nan
5879;BME280;2965;42.640;23.370;2023-05-24T07:45:11;94410.38;;;18.80;nan
5879;BME280;2965;42.640;23.370;2023-05-24T07:47:38;94401.53;;;18.75;nan
5879;BME280;2965;42.640;23.370;2023-05-24T07:50:04;94405.16;;;18.85;nan
5879;BME280;2965;42.640;23.370;2023-05-24T07:52:29;94402.72;;;18.96;nan
5879;BME280;2965;42.640;23.370;2023-05-24T07:54:55;94401.00;;;19.18;nan
5879;BME280;2965;42.640;23.370;2023-05-24T07:57:20;94398.91;;;19.37;nan
5879;BME280;2965;42.640;23.370;2023-05-24T07:59:47;94397.66;;;19.39;nan
5879;BME280;2965;42.640;23.370;2023-05-24T08:02:12;94408.72;;;19.36;nan
5879;BME280;2965;42.640;23.370;2023-05-24T08:04:39;94402.63;;;19.53;nan
5879;BME280;2965;42.640;23.370;2023-05-24T08:07:05;94407.13;;;19.69;nan
5879;BME280;2965;42.640;23.370;2023-05-24T08:09:31;94400.22;;;19.68;nan
5879;BME280;2965;42.640;23.370;2023-05-24T08:12:00;94399.84;;;19.76;nan
5879;BME280;2965;42.640;23.370;2023-05-24T08:14:26;94403.44;;;19.87;nan
5879;BME280;2965;42.640;23.370;2023-05-24T08:16:52;94403.34;;;19.99;nan
5879;BME280;2965;42.640;23.370;2023-05-24T08:31:40;94401.19;;;20.78;nan
5879;BME280;2965;42.640;23.370;2023-05-24T08:34:05;94394.47;;;20.98;nan
5879;BME280;2965;42.640;23.370;2023-05-24T08:36:31;94400.53;;;21.20;nan
5879;BME280;2965;42.640;23.370;2023-05-24T08:38:56;94396.53;;;21.17;nan
5879;BME280;2965;42.640;23.370;2023-05-24T08:41:23;94401.56;;;21.14;nan
5879;BME280;2965;42.640;23.370;2023-05-24T08:43:49;94392.63;;;21.25;nan
5879;BME280;2965;42.640;23.370;2023-05-24T08:46:16;94397.13;;;21.52;nan
5879;BME280;2965;42.640;23.370;2023-05-24T08:48:46;94399.44;;;21.75;nan
5879;BME280;2965;42.640;23.370;2023-05-24T08:51:16;94394.84;;;22.08;nan
5879;BME280;2965;42.640;23.370;2023-05-24T08:53:43;94393.91;;;22.24;nan
5879;BME280;2965;42.640;23.370;2023-05-24T08:56:14;94395.50;;;22.25;nan
5879;BME280;2965;42.640;23.370;2023-05-24T08:58:41;94393.97;;;22.34;nan
5879;BME280;2965;42.640;23.370;2023-05-24T09:01:07;94392.38;;;22.38;nan
5879;BME280;2965;42.640;23.370;2023-05-24T09:03:35;94398.81;;;22.48;nan
5879;BME280;2965;42.640;23.370;2023-05-24T09:06:01;94390.34;;;22.56;nan
5879;BME280;2965;42.640;23.370;2023-05-24T09:08:27;94395.25;;;22.84;nan
5879;BME280;2965;42.640;23.370;2023-05-24T09:10:54;94391.84;;;23.04;nan
5879;BME280;2965;42.640;23.370;2023-05-24T09:13:22;94394.00;;;23.12;nan
5879;BME280;2965;42.640;23.370;2023-05-24T09:15:49;94390.53;;;23.17;nan
5879;BME280;2965;42.640;23.370;2023-05-24T09:18:15;94395.88;;;23.27;nan
5879;BME280;2965;42.640;23.370;2023-05-24T09:20:40;94380.41;;;23.45;nan
5879;BME280;2965;42.640;23.370;2023-05-24T09:23:06;94376.16;;;23.59;nan
5879;BME280;2965;42.640;23.370;2023-05-24T09:25:33;94390.56;;;23.48;nan
5879;BME280;2965;42.640;23.370;2023-05-24T09:28:04;94383.09;;;23.39;nan
5879;BME280;2965;42.640;23.370;2023-05-24T09:30:30;94386.31;;;23.52;nan
5879;BME280;2965;42.640;23.370;2023-05-24T09:32:57;94391.63;;;23.41;nan
5879;BME280;2965;42.640;23.370;2023-05-24T09:35:24;94384.16;;;23.54;nan
5879;BME280;2965;42.640;23.370;2023-05-24T09:37:53;94380.94;;;23.41;nan
5879;BME280;2965;42.640;23.370;2023-05-24T09:40:19;94379.91;;;23.68;nan
5879;BME280;2965;42.640;23.370;2023-05-24T09:42:45;94376.19;;;23.79;nan
5879;BME280;2965;42.640;23.370;2023-05-24T09:45:10;94377.22;;;23.94;nan
5879;BME280;2965;42.640;23.370;2023-05-24T09:47:38;94372.88;;;24.28;nan
5879;BME280;2965;42.640;23.370;2023-05-24T09:50:08;94370.44;;;24.47;nan
5879;BME280;2965;42.640;23.370;2023-05-24T09:52:35;94360.28;;;24.34;nan
5879;BME280;2965;42.640;23.370;2023-05-24T09:55:17;94366.50;;;24.14;nan
5879;BME280;2965;42.640;23.370;2023-05-24T09:57:44;94373.38;;;24.30;nan
5879;BME280;2965;42.640;23.370;2023-05-24T10:00:10;94374.34;;;24.75;nan
5879;BME280;2965;42.640;23.370;2023-05-24T10:02:42;94372.72;;;24.79;nan
5879;BME280;2965;42.640;23.370;2023-05-24T10:05:09;94373.13;;;25.02;nan
5879;BME280;2965;42.640;23.370;2023-05-24T10:07:36;94367.19;;;25.15;nan
5879;BME280;2965;42.640;23.370;2023-05-24T10:10:04;94364.34;;;25.35;nan
5879;BME280;2965;42.640;23.370;2023-05-24T10:12:29;94361.47;;;25.27;nan
5879;BME280;2965;42.640;23.370;2023-05-24T10:14:55;94358.44;;;25.38;nan
5879;BME280;2965;42.640;23.370;2023-05-24T10:17:22;94365.41;;;25.39;nan
5879;BME280;2965;42.640;23.370;2023-05-24T10:19:52;94357.31;;;25.45;nan
5879;BME280;2965;42.640;23.370;2023-05-24T10:22:19;94362.94;;;25.48;nan
5879;BME280;2965;42.640;23.370;2023-05-24T10:24:49;94363.47;;;25.45;nan
5879;BME280;2965;42.640;23.370;2023-05-24T10:27:21;94364.13;;;25.66;nan
5879;BME280;2965;42.640;23.370;2023-05-24T10:29:58;94356.13;;;26.19;nan
5879;BME280;2965;42.640;23.370;2023-05-24T10:32:26;94355.88;;;25.91;nan
5879;BME280;2965;42.640;23.370;2023-05-24T10:34:57;94350.06;;;25.16;nan
5879;BME280;2965;42.640;23.370;2023-05-24T10:37:24;94346.53;;;25.21;nan
5879;BME280;2965;42.640;23.370;2023-05-24T10:39:50;94350.28;;;25.54;nan
5879;BME280;2965;42.640;23.370;2023-05-24T10:42:16;94344.78;;;25.74;nan
5879;BME280;2965;42.640;23.370;2023-05-24T10:44:42;94342.84;;;26.09;nan
5879;BME280;2965;42.640;23.370;2023-05-24T10:47:09;94339.44;;;26.51;nan
5879;BME280;2965;42.640;23.370;2023-05-24T10:49:36;94337.00;;;26.74;nan
5879;BME280;2965;42.640;23.370;2023-05-24T10:52:08;94329.72;;;26.98;nan
5879;BME280;2965;42.640;23.370;2023-05-24T10:54:33;94332.63;;;27.02;nan
5879;BME280;2965;42.640;23.370;2023-05-24T10:57:01;94334.44;;;26.87;nan
5879;BME280;2965;42.640;23.370;2023-05-24T10:59:32;94337.75;;;26.79;nan
5879;BME280;2965;42.640;23.370;2023-05-24T11:02:01;94335.78;;;26.66;nan
5879;BME280;2965;42.640;23.370;2023-05-24T11:04:32;94333.34;;;26.70;nan
5879;BME280;2965;42.640;23.370;2023-05-24T11:09:27;94326.31;;;27.30;nan
5879;BME280;2965;42.640;23.370;2023-05-24T11:11:55;94323.88;;;27.15;nan
5879;BME280;2965;42.640;23.370;2023-05-24T11:14:23;94323.72;;;27.25;nan
5879;BME280;2965;42.640;23.370;2023-05-24T11:16:48;94325.03;;;27.60;nan
5879;BME280;2965;42.640;23.370;2023-05-24T11:21:47;94316.06;;;27.51;nan
5879;BME280;2965;42.640;23.370;2023-05-24T11:24:15;94318.28;;;27.63;nan
5879;BME280;2965;42.640;23.370;2023-05-24T11:26:42;94317.47;;;27.62;nan
5879;BME280;2965;42.640;23.370;2023-05-24T11:29:08;94311.91;;;27.40;nan
5879;BME280;2965;42.640;23.370;2023-05-24T11:31:33;94311.81;;;27.64;nan
5879;BME280;2965;42.640;23.370;2023-05-24T11:34:03;94304.34;;;27.61;nan
5879;BME280;2965;42.640;23.370;2023-05-24T11:36:29;94310.91;;;27.55;nan
5879;BME280;2965;42.640;23.370;2023-05-24T11:38:56;94307.38;;;27.73;nan
5879;BME280;2965;42.640;23.370;2023-05-24T11:41:21;94310.63;;;28.03;nan
5879;BME280;2965;42.640;23.370;2023-05-24T11:43:47;94310.22;;;28.23;nan
5879;BME280;2965;42.640;23.370;2023-05-24T11:46:12;94299.88;;;28.16;nan
5879;BME280;2965;42.640;23.370;2023-05-24T11:48:38;94294.28;;;27.99;nan
5879;BME280;2965;42.640;23.370;2023-05-24T11:51:03;94299.47;;;28.23;nan
5879;BME280;2965;42.640;23.370;2023-05-24T11:53:30;94294.28;;;28.27;nan
5879;BME280;2965;42.640;23.370;2023-05-24T11:55:55;94289.88;;;28.72;nan
5879;BME280;2965;42.640;23.370;2023-05-24T11:58:27;94287.81;;;28.55;nan
5879;BME280;2965;42.640;23.370;2023-05-24T12:00:54;94282.16;;;28.43;nan
5879;BME280;2965;42.640;23.370;2023-05-24T12:05:45;94282.63;;;28.59;nan
5879;BME280;2965;42.640;23.370;2023-05-24T12:08:12;94275.94;;;28.70;nan
5879;BME280;2965;42.640;23.370;2023-05-24T12:10:40;94272.63;;;28.87;nan
5879;BME280;2965;42.640;23.370;2023-05-24T12:13:18;94279.69;;;28.97;nan
5879;BME280;2965;42.640;23.370;2023-05-24T12:15:44;94277.69;;;29.25;nan
5879;BME280;2965;42.640;23.370;2023-05-24T12:18:19;94268.16;;;28.82;nan
5879;BME280;2965;42.640;23.370;2023-05-24T12:20:47;94271.88;;;29.09;nan
5879;BME280;2965;42.640;23.370;2023-05-24T12:45:25;94246.84;;;29.31;nan
5879;BME280;2965;42.640;23.370;2023-05-24T12:47:52;94247.75;;;29.49;nan
5879;BME280;2965;42.640;23.370;2023-05-24T12:50:19;94239.31;;;29.19;nan
5879;BME280;2965;42.640;23.370;2023-05-24T12:52:45;94240.16;;;29.06;nan
5879;BME280;2965;42.640;23.370;2023-05-24T12:55:14;94248.97;;;28.98;nan
5879;BME280;2965;42.640;23.370;2023-05-24T12:57:43;94242.56;;;28.94;nan
5879;BME280;2965;42.640;23.370;2023-05-24T13:00:09;94240.28;;;29.23;nan
5879;BME280;2965;42.640;23.370;2023-05-24T13:02:36;94237.84;;;29.35;nan
5879;BME280;2965;42.640;23.370;2023-05-24T13:05:02;94242.97;;;29.46;nan
5879;BME280;2965;42.640;23.370;2023-05-24T13:07:29;94236.63;;;28.97;nan
5879;BME280;2965;42.640;23.370;2023-05-24T13:09:54;94231.88;;;28.44;nan
5879;BME280;2965;42.640;23.370;2023-05-24T13:12:20;94238.16;;;28.39;nan
5879;BME280;2965;42.640;23.370;2023-05-24T13:14:46;94239.94;;;28.16;nan
5879;BME280;2965;42.640;23.370;2023-05-24T13:17:11;94224.38;;;28.27;nan
5879;BME280;2965;42.640;23.370;2023-05-24T13:19:37;94228.53;;;28.60;nan
5879;BME280;2965;42.640;23.370;2023-05-24T13:22:02;94224.84;;;28.92;nan
5879;BME280;2965;42.640;23.370;2023-05-24T13:24:28;94222.19;;;29.15;nan
5879;BME280;2965;42.640;23.370;2023-05-24T13:26:53;94216.41;;;29.30;nan
5879;BME280;2965;42.640;23.370;2023-05-24T13:29:19;94218.16;;;28.67;nan
5879;BME280;2965;42.640;23.370;2023-05-24T13:31:45;94216.88;;;29.01;nan
5879;BME280;2965;42.640;23.370;2023-05-24T13:34:11;94212.50;;;29.36;nan
5879;BME280;2965;42.640;23.370;2023-05-24T13:36:36;94212.69;;;29.40;nan
5879;BME280;2965;42.640;23.370;2023-05-24T13:39:02;94214.56;;;28.95;nan
5879;BME280;2965;42.640;23.370;2023-05-24T13:41:28;94212.06;;;28.12;nan
5879;BME280;2965;42.640;23.370;2023-05-24T13:43:54;94208.28;;;27.85;nan
5879;BME280;2965;42.640;23.370;2023-05-24T13:46:19;94213.44;;;27.68;nan
5879;BME280;2965;42.640;23.370;2023-05-24T13:48:45;94212.63;;;27.54;nan
5879;BME280;2965;42.640;23.370;2023-05-24T13:51:11;94206.00;;;27.32;nan
5879;BME280;2965;42.640;23.370;2023-05-24T13:53:36;94210.19;;;27.06;nan
5879;BME280;2965;42.640;23.370;2023-05-24T13:56:02;94213.63;;;26.92;nan
5879;BME280;2965;42.640;23.370;2023-05-24T13:58:28;94218.66;;;26.61;nan
5879;BME280;2965;42.640;23.370;2023-05-24T14:00:53;94217.88;;;26.61;nan
5879;BME280;2965;42.640;23.370;2023-05-24T14:03:20;94213.91;;;26.34;nan
5879;BME280;2965;42.640;23.370;2023-05-24T14:05:45;94231.28;;;26.37;nan
5879;BME280;2965;42.640;23.370;2023-05-24T14:08:11;94239.00;;;26.20;nan
5879;BME280;2965;42.640;23.370;2023-05-24T14:10:36;94232.28;;;26.22;nan
5879;BME280;2965;42.640;23.370;2023-05-24T14:13:05;94233.69;;;25.96;nan
5879;BME280;2965;42.640;23.370;2023-05-24T14:15:31;94229.56;;;25.79;nan
5879;BME280;2965;42.640;23.370;2023-05-24T14:17:59;94239.78;;;25.77;nan
5879;BME280;2965;42.640;23.370;2023-05-24T14:20:25;94235.03;;;25.69;nan
5879;BME280;2965;42.640;23.370;2023-05-24T14:22:50;94238.72;;;25.73;nan
5879;BME280;2965;42.640;23.370;2023-05-24T14:25:16;94230.09;;;25.23;nan
5879;BME280;2965;42.640;23.370;2023-05-24T14:27:42;94238.47;;;25.16;nan
5879;BME280;2965;42.640;23.370;2023-05-24T14:30:08;94235.09;;;25.35;nan
5879;BME280;2965;42.640;23.370;2023-05-24T14:32:34;94235.44;;;25.28;nan
5879;BME280;2965;42.640;23.370;2023-05-24T14:34:59;94236.34;;;25.42;nan
5879;BME280;2965;42.640;23.370;2023-05-24T14:37:25;94238.56;;;25.35;nan
5879;BME280;2965;42.640;23.370;2023-05-24T14:39:51;94249.31;;;25.30;nan
5879;BME280;2965;42.640;23.370;2023-05-24T14:42:16;94244.59;;;25.17;nan
5879;BME280;2965;42.640;23.370;2023-05-24T14:44:44;94250.25;;;24.76;nan
5879;BME280;2965;42.640;23.370;2023-05-24T14:47:09;94258.09;;;24.62;nan
5879;BME280;2965;42.640;23.370;2023-05-24T14:49:35;94254.63;;;24.57;nan
5879;BME280;2965;42.640;23.370;2023-05-24T14:52:02;94254.50;;;24.28;nan
5879;BME280;2965;42.640;23.370;2023-05-24T14:54:28;94243.09;;;24.07;nan
5879;BME280;2965;42.640;23.370;2023-05-24T14:56:53;94250.56;;;24.10;nan
5879;BME280;2965;42.640;23.370;2023-05-24T14:59:18;94243.53;;;24.29;nan
5879;BME280;2965;42.640;23.370;2023-05-24T15:01:44;94241.50;;;24.06;nan
5879;BME280;2965;42.640;23.370;2023-05-24T15:04:09;94237.22;;;24.10;nan
5879;BME280;2965;42.640;23.370;2023-05-24T15:06:34;94239.84;;;24.15;nan
5879;BME280;2965;42.640;23.370;2023-05-24T15:09:01;94237.81;;;23.97;nan
5879;BME280;2965;42.640;23.370;2023-05-24T15:11:27;94239.47;;;23.77;nan
5879;BME280;2965;42.640;23.370;2023-05-24T15:13:53;94234.63;;;23.89;nan
5879;BME280;2965;42.640;23.370;2023-05-24T15:16:25;94239.94;;;23.95;nan
5879;BME280;2965;42.640;23.370;2023-05-24T15:18:51;94245.28;;;23.95;nan
5879;BME280;2965;42.640;23.370;2023-05-24T15:21:17;94237.81;;;23.91;nan
5879;BME280;2965;42.640;23.370;2023-05-24T15:23:42;94235.75;;;23.78;nan
5879;BME280;2965;42.640;23.370;2023-05-24T15:26:08;94232.00;;;23.79;nan
5879;BME280;2965;42.640;23.370;2023-05-24T15:28:33;94230.34;;;23.88;nan
5879;BME280;2965;42.640;23.370;2023-05-24T15:30:59;94239.19;;;23.79;nan
5879;BME280;2965;42.640;23.370;2023-05-24T15:33:25;94235.19;;;23.76;nan
5879;BME280;2965;42.640;23.370;2023-05-24T15:35:51;94236.47;;;23.94;nan
5879;BME280;2965;42.640;23.370;2023-05-24T15:38:16;94234.56;;;24.05;nan
5879;BME280;2965;42.640;23.370;2023-05-24T15:40:43;94233.41;;;24.21;nan
5879;BME280;2965;42.640;23.370;2023-05-24T15:43:09;94227.25;;;24.31;nan
5879;BME280;2965;42.640;23.370;2023-05-24T15:45:35;94238.69;;;24.36;nan
5879;BME280;2965;42.640;23.370;2023-05-24T15:48:01;94234.66;;;24.49;nan
5879;BME280;2965;42.640;23.370;2023-05-24T15:50:29;94232.19;;;24.58;nan
5879;BME280;2965;42.640;23.370;2023-05-24T15:52:56;94241.47;;;24.71;nan
5879;BME280;2965;42.640;23.370;2023-05-24T15:55:21;94245.38;;;24.83;nan
5879;BME280;2965;42.640;23.370;2023-05-24T15:57:46;94246.41;;;24.87;nan
5879;BME280;2965;42.640;23.370;2023-05-24T16:00:12;94244.19;;;25.00;nan
5879;BME280;2965;42.640;23.370;2023-05-24T16:02:38;94249.88;;;25.27;nan
5879;BME280;2965;42.640;23.370;2023-05-24T16:05:03;94257.66;;;25.53;nan
5879;BME280;2965;42.640;23.370;2023-05-24T16:07:28;94254.56;;;25.70;nan
5879;BME280;2965;42.640;23.370;2023-05-24T16:09:54;94258.75;;;25.81;nan
5879;BME280;2965;42.640;23.370;2023-05-24T16:12:19;94259.53;;;25.23;nan
5879;BME280;2965;42.640;23.370;2023-05-24T16:23:16;94277.94;;;24.90;nan
5879;BME280;2965;42.640;23.370;2023-05-24T16:25:43;94271.81;;;24.90;nan
5879;BME280;2965;42.640;23.370;2023-05-24T16:28:10;94273.09;;;24.98;nan
5879;BME280;2965;42.640;23.370;2023-05-24T16:30:35;94275.81;;;24.92;nan
5879;BME280;2965;42.640;23.370;2023-05-24T16:33:01;94268.84;;;24.91;nan
5879;BME280;2965;42.640;23.370;2023-05-24T16:35:26;94261.34;;;24.94;nan
5879;BME280;2965;42.640;23.370;2023-05-24T16:37:52;94268.53;;;24.59;nan
5879;BME280;2965;42.640;23.370;2023-05-24T16:40:17;94270.34;;;24.04;nan
5879;BME280;2965;42.640;23.370;2023-05-24T16:42:42;94271.50;;;23.77;nan
5879;BME280;2965;42.640;23.370;2023-05-24T16:45:08;94268.31;;;23.60;nan
5879;BME280;2965;42.640;23.370;2023-05-24T16:47:34;94274.19;;;23.62;nan
5879;BME280;2965;42.640;23.370;2023-05-24T16:49:59;94279.00;;;23.75;nan
5879;BME280;2965;42.640;23.370;2023-05-24T16:52:25;94272.59;;;23.61;nan
5879;BME280;2965;42.640;23.370;2023-05-24T16:54:50;94279.28;;;23.48;nan
5879;BME280;2965;42.640;23.370;2023-05-24T16:57:16;94277.41;;;23.44;nan
5879;BME280;2965;42.640;23.370;2023-05-24T16:59:41;94274.75;;;23.38;nan
5879;BME280;2965;42.640;23.370;2023-05-24T17:02:07;94275.28;;;23.35;nan
5879;BME280;2965;42.640;23.370;2023-05-24T17:04:33;94278.50;;;23.17;nan
5879;BME280;2965;42.640;23.370;2023-05-24T17:06:58;94279.56;;;23.11;nan
5879;BME280;2965;42.640;23.370;2023-05-24T17:09:23;94282.22;;;23.06;nan
5879;BME280;2965;42.640;23.370;2023-05-24T17:11:49;94279.03;;;22.99;nan
5879;BME280;2965;42.640;23.370;2023-05-24T17:14:14;94281.97;;;23.02;nan
5879;BME280;2965;42.640;23.370;2023-05-24T17:16:40;94282.47;;;22.89;nan
5879;BME280;2965;42.640;23.370;2023-05-24T17:19:05;94283.22;;;22.79;nan
5879;BME280;2965;42.640;23.370;2023-05-24T17:21:31;94291.72;;;22.61;nan
5879;BME280;2965;42.640;23.370;2023-05-24T17:23:56;94291.69;;;22.40;nan
5879;BME280;2965;42.640;23.370;2023-05-24T17:26:22;94286.88;;;22.32;nan
5879;BME280;2965;42.640;23.370;2023-05-24T17:28:48;94293.47;;;22.14;nan
5879;BME280;2965;42.640;23.370;2023-05-24T17:31:14;94298.78;;;22.14;nan
5879;BME280;2965;42.640;23.370;2023-05-24T17:33:40;94304.25;;;21.92;nan
5879;BME280;2965;42.640;23.370;2023-05-24T17:36:06;94306.03;;;21.82;nan
5879;BME280;2965;42.640;23.370;2023-05-24T17:38:36;94305.69;;;21.68;nan
5879;BME280;2965;42.640;23.370;2023-05-24T17:41:02;94303.97;;;21.47;nan
5879;BME280;2965;42.640;23.370;2023-05-24T17:43:28;94317.16;;;21.31;nan
5879;BME280;2965;42.640;23.370;2023-05-24T17:46:01;94310.69;;;21.22;nan
5879;BME280;2965;42.640;23.370;2023-05-24T17:48:38;94319.00;;;20.99;nan
5879;BME280;2965;42.640;23.370;2023-05-24T17:51:07;94326.09;;;20.93;nan
5879;BME280;2965;42.640;23.370;2023-05-24T17:53:35;94333.59;;;20.96;nan
5879;BME280;2965;42.640;23.370;2023-05-24T17:56:01;94330.13;;;20.96;nan
5879;BME280;2965;42.640;23.370;2023-05-24T17:58:27;94338.41;;;20.99;nan
5879;BME280;2965;42.640;23.370;2023-05-24T18:00:55;94336.91;;;20.81;nan
5879;BME280;2965;42.640;23.370;2023-05-24T18:03:20;94337.94;;;20.80;nan
5879;BME280;2965;42.640;23.370;2023-05-24T18:05:46;94334.13;;;20.71;nan
5879;BME280;2965;42.640;23.370;2023-05-24T18:08:11;94331.19;;;20.68;nan
5879;BME280;2965;42.640;23.370;2023-05-24T18:10:37;94337.31;;;20.68;nan
5879;BME280;2965;42.640;23.370;2023-05-24T18:13:05;94343.53;;;20.57;nan
5879;BME280;2965;42.640;23.370;2023-05-24T18:15:31;94338.09;;;20.47;nan
5879;BME280;2965;42.640;23.370;2023-05-24T18:17:56;94343.09;;;20.43;nan